Flight Track Log - Related Links

Times and Time Zones

All times are in EDT time to prevent confusion due to time zone crossing. See the N522US flight status page for this flight to view local times or setup timezone preferences in your user account.

Time Position Orientation Groundspeed Altitude Reporting Facility
EDT Latitude Longitude Course Direction KTS MPH feet Rate Location/Type
Tue 02:33:04 PM 30.1733 -97.4808 53° Northeast 304 350 9,400  Level Houston Center
Tue 02:36:04 PM 30.3494 -97.2119 86° East 350 403 16,600 2,475 Climbing Houston Center
Tue 02:37:04 PM 30.3567 -97.0872 96° East 383 441 19,300 2,600 Climbing Houston Center
Tue 02:38:04 PM 30.3450 -96.9592 92° East 382 440 21,800 2,300 Climbing Houston Center
Tue 02:39:04 PM 30.3400 -96.8194 83° East 409 471 23,900 2,050 Climbing Houston Center
Tue 02:40:04 PM 30.3533 -96.6856 70° East 416 479 25,900 1,950 Climbing Houston Center
Tue 02:41:04 PM 30.3936 -96.5550 70° East 428 493 27,800 1,750 Climbing Houston Center
Tue 02:42:04 PM 30.4358 -96.4200 71° East 434 499 29,400 1,450 Climbing Houston Center
Tue 02:43:04 PM 30.4783 -96.2797 71° East 449 517 30,700 1,250 Climbing Houston Center
Tue 02:44:04 PM 30.5206 -96.1394 72° East 455 524 31,900 1,200 Climbing Houston Center
Tue 02:45:04 PM 30.5608 -95.9967 71° East 464 534 33,100 1,200 Climbing Houston Center
Tue 02:46:04 PM 30.6028 -95.8514 72° East 464 534 34,300 1,250 Climbing Houston Center
Tue 02:47:04 PM 30.6450 -95.6986 71° East 475 547 35,600 1,050 Climbing Houston Center
Tue 02:48:04 PM 30.6800 -95.5794 73° East 480 552 36,400 850 Climbing Houston Center
Tue 02:49:04 PM 30.7267 -95.4000 71° East 480 552 37,300 850 Climbing Houston Center
Tue 02:50:04 PM 30.7706 -95.2472 72° East 480 552 38,100 850 Climbing Houston Center
Tue 02:51:04 PM 30.8142 -95.0917 73° East 486 559 39,000 450 Climbing Houston Center
Tue 02:52:04 PM 30.8533 -94.9431 72° East 491 565 39,000  Level Houston Center
Tue 02:53:04 PM 30.8944 -94.7919 72° East 491 565 39,000  Level Houston Center
Tue 02:54:04 PM 30.9375 -94.6358 72° East 496 571 39,000  Level Houston Center
Tue 02:55:04 PM 30.9806 -94.4822 73° East 496 571 39,000  Level Houston Center
Tue 02:56:04 PM 31.0211 -94.3308 72° East 496 571 39,000  Level Houston Center
Tue 02:57:04 PM 31.0594 -94.1914 73° East 496 571 39,000  Level Houston Center
Tue 02:58:04 PM 31.0997 -94.0372 71° East 496 571 39,000  Level Houston Center
Tue 02:59:04 PM 31.1419 -93.8900 73° East 490 564 39,000  Level Houston Center
Tue 03:00:04 PM 31.1819 -93.7381 73° East 490 564 39,000 -50 Level Houston Center
Tue 03:01:04 PM 31.2217 -93.5861 72° East 490 564 38,900  Descending Houston Center
Tue 03:02:04 PM 31.2633 -93.4314 73° East 496 571 39,000 50 Climbing Houston Center
Tue 03:03:04 PM 31.3028 -93.2767 72° East 496 571 39,000  Level Houston Center
Tue 03:04:04 PM 31.3442 -93.1242 74° East 496 571 39,000 -50 Level Houston Center
Tue 03:05:04 PM 31.3814 -92.9742 74° East 491 565 38,900  Descending Houston Center
Tue 03:06:04 PM 31.4181 -92.8261 73° East 485 558 39,000 50 Climbing Houston Center
Tue 03:07:04 PM 31.4589 -92.6733 73° East 480 552 39,000 -50 Level Houston Center
Tue 03:08:04 PM 31.4975 -92.5228 74° East 480 552 38,900 -50 Descending Houston Center
Tue 03:09:04 PM 31.5361 -92.3672 72° East 480 552 38,900 50 Level Houston Center
Tue 03:10:04 PM 31.5764 -92.2189 73° East 480 552 39,000 50 Climbing Houston Center
Tue 03:11:04 PM 31.6167 -92.0656 76° East 480 552 39,000  Level Houston Center
Tue 03:12:04 PM 31.6503 -91.9097 73° East 480 552 39,000  Level Houston Center
Tue 03:13:04 PM 31.6900 -91.7539 74° East 485 558 39,000  Level Houston Center
Tue 03:14:47 PM 31.7544 -91.4908 74° East 489 563 39,000  Level Memphis Center
Tue 03:15:47 PM 31.7914 -91.3375 74° East 494 568 39,000  Level Memphis Center
Tue 03:16:46 PM 31.8281 -91.1836 74° East 494 568 39,000  Level Memphis Center
Tue 03:17:47 PM 31.8642 -91.0350 74° East 483 556 39,000  Level Memphis Center
Tue 03:18:47 PM 31.9025 -90.8811 75° East 483 556 39,000  Level Memphis Center
Tue 03:19:47 PM 31.9367 -90.7294 75° East 476 548 39,000  Level Memphis Center
Tue 03:20:46 PM 31.9639 -90.6072 74° East 476 548 39,000 -50 Level Memphis Center
Tue 03:21:47 PM 32.0081 -90.4258 75° East 476 548 38,900 -893 Descending Memphis Center
Tue 03:22:47 PM 32.0436 -90.2717 74° East 476 548 37,200 -1,650 Descending Memphis Center
Tue 03:23:47 PM 32.0808 -90.1147 75° East 482 555 35,600 -1,350 Descending Memphis Center
Tue 03:24:47 PM 32.1222 -89.9378 75° East 495 570 34,500 -1,100 Descending Memphis Center
Tue 03:25:47 PM 32.1592 -89.7733 75° East 500 575 33,400 -1,150 Descending Memphis Center
Tue 03:26:47 PM 32.1958 -89.6136 75° East 500 575 32,200 -1,050 Descending Memphis Center
Tue 03:27:47 PM 32.2322 -89.4486 74° East 505 581 31,300 -950 Descending Memphis Center
Tue 03:28:47 PM 32.2706 -89.2861 75° East 511 588 30,300 -850 Descending Memphis Center
Tue 03:29:47 PM 32.3067 -89.1233 78° East 511 588 29,600 -650 Descending Memphis Center
Tue 03:30:47 PM 32.3342 -88.9633 80° East 511 588 29,000 -300 Descending Memphis Center
Tue 03:31:47 PM 32.3575 -88.8031 79° East 506 582 29,000  Level Memphis Center
Tue 03:33:43 PM 32.4094 -88.4919 80° East 483 556 29,000  Level Atlanta Center
Tue 03:34:43 PM 32.4339 -88.3306 81° East 488 562 29,000  Level Atlanta Center
Tue 03:35:43 PM 32.4561 -88.1644 83° East 493 567 29,000  Level Atlanta Center
Tue 03:36:43 PM 32.4739 -88.0028 81° East 498 573 29,000  Level Atlanta Center
Tue 03:37:43 PM 32.4903 -87.8828 75° East 509 586 29,000  Level Atlanta Center
Tue 03:38:43 PM 32.5336 -87.6900 77° East 504 580 29,000  Level Atlanta Center
Tue 03:39:43 PM 32.5656 -87.5286 80° East 510 587 29,000  Level Atlanta Center
Tue 03:40:43 PM 32.5886 -87.3742 80° East 510 587 29,000  Level Atlanta Center
Tue 03:41:43 PM 32.6167 -87.1856 79° East 526 605 29,000  Level Atlanta Center
Tue 03:42:43 PM 32.6464 -86.9967 79° East 526 605 29,000  Level Atlanta Center
Tue 03:43:43 PM 32.6733 -86.8247 79° East 526 605 29,000  Level Atlanta Center
Tue 03:44:43 PM 32.7000 -86.6553 73° East 526 605 29,000  Level Atlanta Center
Tue 03:45:43 PM 32.7431 -86.4861 73° East 526 605 29,000 -550 Level Atlanta Center
Tue 03:46:43 PM 32.7858 -86.3169 74° East 531 611 27,900 -1,100 Descending Atlanta Center
Tue 03:47:43 PM 32.8264 -86.1500 76° East 523 602 26,800 -1,050 Descending Atlanta Center
Tue 03:48:43 PM 32.8581 -85.9997 81° East 523 602 25,800 -850 Descending Atlanta Center
Tue 03:49:43 PM 32.8794 -85.8369 78° East 512 589 25,100 -750 Descending Atlanta Center
Tue 03:50:43 PM 32.9089 -85.6719 65° Northeast 507 583 24,300 -1,150 Descending Atlanta Center
Tue 03:51:43 PM 32.9672 -85.5219 61° Northeast 493 567 22,800 -1,850 Descending Atlanta Center
Tue 03:52:43 PM 33.0314 -85.3842 63° Northeast 478 550 20,600 -2,500 Descending Atlanta Center
Tue 03:53:43 PM 33.0933 -85.2389 63° Northeast 447 514 17,800 -2,585 Descending Atlanta Center
Tue 03:54:46 PM 33.1489 -85.1106 56° Northeast 442 509 15,300 -1,727 Descending Atlanta Center
Tue 03:55:55 PM 33.2250 -84.9750 47° Northeast 416 479 14,000 -1,209 Descending Atlanta Center
Tue 03:56:55 PM 33.2967 -84.8814 48° Northeast 391 450 12,700 -1,000 Descending Atlanta Center
Tue 03:57:55 PM 33.3661 -84.7900 50° Northeast 371 427 12,000 -400 Descending Atlanta Center
Tue 03:58:55 PM 33.4314 -84.6983 48° Northeast 366 421 11,900 -50 Descending Atlanta Center
Tue 03:59:55 PM 33.4967 -84.6117 51° Northeast 354 407 11,900 -100 Level Atlanta Center
Tue 04:00:55 PM 33.5406 -84.5472 86° East 319 367 11,700 -950 Descending Atlanta Center
Tue 04:01:55 PM 33.5453 -84.4600 90° East 253 291 10,000 -1,750 Descending Atlanta Center
Tue 04:02:55 PM 33.5453 -84.3753 86° East 253 291 8,200 -1,850 Descending Atlanta Center
Tue 04:03:42 PM 33.5500 -84.3000 73° East 243 280 6,700 -1,706 Descending Atlanta TRACON
Tue 04:04:37 PM 33.5667 -84.2333 331° Northwest 243 280 5,300 -1,636 Descending Atlanta TRACON
Tue 04:05:43 PM 33.6167 -84.2667 292° West 219 252 3,400 -1,333 Descending Atlanta TRACON
Tue 04:06:43 PM 33.6333 -84.3167 270° West 200 230 2,500 -900 Descending Atlanta TRACON
Tue 04:07:43 PM 33.6333 -84.3833 270° West 164 189 1,600 -900 Descending Atlanta TRACON
Tue 04:15:32 PM 33.6333 -84.4167 270° West  Level FlightAware Approximate

Login

Don't have an account? Register now (free) for customized features, flight alerts, and more!